createdAt,value
2018-12-19T00:01:41.016Z,2.77
2018-12-19T00:04:08.514Z,2.30
2018-12-19T00:06:36.995Z,2.70
2018-12-19T00:09:06.527Z,2.00
2018-12-19T00:11:34.007Z,3.77
2018-12-19T00:14:01.834Z,3.33
2018-12-19T00:16:29.453Z,4.53
2018-12-19T00:18:57.212Z,2.63
2018-12-19T00:21:24.852Z,4.20
2018-12-19T00:23:52.460Z,3.57
2018-12-19T00:26:20.094Z,2.53
2018-12-19T00:28:47.632Z,3.27
2018-12-19T00:31:15.097Z,3.67
2018-12-19T00:33:42.876Z,3.73
2018-12-19T00:36:10.662Z,2.17
2018-12-19T00:38:38.405Z,1.73
2018-12-19T00:41:06.105Z,2.70
2018-12-19T00:43:33.608Z,2.83
2018-12-19T00:46:01.261Z,2.67
2018-12-19T00:48:28.841Z,4.97
2018-12-19T00:50:56.312Z,2.27
2018-12-19T00:53:24.076Z,2.30
2018-12-19T00:55:51.723Z,4.03
2018-12-19T00:58:19.188Z,3.23
2018-12-19T01:00:46.744Z,2.97
2018-12-19T01:03:14.360Z,1.90
2018-12-19T01:05:41.880Z,4.33
2018-12-19T01:08:09.336Z,2.73
2018-12-19T01:10:36.937Z,1.53
2018-12-19T01:13:04.555Z,2.97
2018-12-19T01:15:33.109Z,1.67
2018-12-19T01:18:01.253Z,1.23
2018-12-19T01:20:28.869Z,1.70
2018-12-19T01:22:56.312Z,3.10
2018-12-19T01:25:23.952Z,1.43
2018-12-19T01:27:51.547Z,2.50
2018-12-19T01:30:18.985Z,1.60
2018-12-19T01:32:46.615Z,1.60
2018-12-19T01:35:14.210Z,2.13
2018-12-19T01:37:41.669Z,1.87
2018-12-19T01:40:09.911Z,2.40
2018-12-19T01:42:37.650Z,1.33
2018-12-19T01:45:07.118Z,1.70
2018-12-19T01:47:34.598Z,1.50
2018-12-19T01:50:02.363Z,2.17
2018-12-19T01:52:30.124Z,1.63
2018-12-19T01:54:57.871Z,2.13
2018-12-19T01:57:26.324Z,1.93
2018-12-19T01:59:54.026Z,1.40
2018-12-19T02:02:26.652Z,2.57
2018-12-19T02:04:54.201Z,1.70
2018-12-19T02:07:22.301Z,2.87
2018-12-19T02:09:50.310Z,3.03
2018-12-19T02:12:18.172Z,1.33
2018-12-19T02:14:45.756Z,1.67
2018-12-19T02:17:13.455Z,1.93
2018-12-19T02:19:41.065Z,1.53
2018-12-19T02:22:08.581Z,2.30
2018-12-19T02:24:37.076Z,1.87
2018-12-19T02:27:04.677Z,1.30
2018-12-19T02:29:32.369Z,4.20
2018-12-19T02:32:01.746Z,1.60
2018-12-19T02:34:29.252Z,1.30
2018-12-19T02:36:56.695Z,1.30
2018-12-19T02:39:24.441Z,1.13
2018-12-19T02:41:52.095Z,1.20
2018-12-19T02:44:19.665Z,3.03
2018-12-19T02:46:47.257Z,1.30
2018-12-19T02:49:14.880Z,1.83
2018-12-19T02:51:42.497Z,2.67
2018-12-19T02:54:10.061Z,1.20
2018-12-19T02:56:37.700Z,1.47
2018-12-19T02:59:05.300Z,2.60
2018-12-19T03:01:33.068Z,2.00
2018-12-19T03:04:00.530Z,2.83
2018-12-19T03:06:27.993Z,2.17
2018-12-19T03:08:55.447Z,1.70
2018-12-19T03:11:22.927Z,1.60
2018-12-19T03:13:52.676Z,1.33
2018-12-19T03:16:20.374Z,2.20
2018-12-19T03:18:47.838Z,2.00
2018-12-19T03:21:16.132Z,1.50
2018-12-19T03:23:43.585Z,3.97
2018-12-19T03:26:11.043Z,1.40
2018-12-19T03:28:38.876Z,1.63
2018-12-19T03:31:06.569Z,3.20
2018-12-19T03:33:34.317Z,1.30
2018-12-19T03:36:01.792Z,3.03
2018-12-19T03:38:29.245Z,1.30
2018-12-19T03:40:57.009Z,2.73
2018-12-19T03:43:24.493Z,2.30
2018-12-19T03:45:52.245Z,1.33
2018-12-19T03:48:25.571Z,2.10
2018-12-19T03:50:53.310Z,1.50
2018-12-19T03:53:21.056Z,2.07
2018-12-19T03:55:48.534Z,1.83
2018-12-19T03:58:16.145Z,1.37
2018-12-19T04:00:43.647Z,2.80
2018-12-19T04:03:11.210Z,2.83
2018-12-19T04:05:38.678Z,2.37
2018-12-19T04:08:06.295Z,1.33
2018-12-19T04:10:33.892Z,2.50
2018-12-19T04:13:01.498Z,2.30
2018-12-19T04:15:29.017Z,1.50
2018-12-19T04:17:56.557Z,1.97
2018-12-19T04:20:24.017Z,1.53
2018-12-19T04:22:51.807Z,3.30
2018-12-19T04:25:19.581Z,1.47
2018-12-19T04:27:47.326Z,2.77
2018-12-19T04:30:14.764Z,1.93
2018-12-19T04:32:42.683Z,2.73
2018-12-19T04:35:10.245Z,1.63
2018-12-19T04:37:37.702Z,2.07
2018-12-19T04:40:06.055Z,2.00
2018-12-19T04:42:33.945Z,1.67
2018-12-19T04:45:01.687Z,1.60
2018-12-19T04:47:29.312Z,1.83
2018-12-19T04:49:56.851Z,2.60
2018-12-19T04:52:24.318Z,2.77
2018-12-19T04:54:51.756Z,2.07
2018-12-19T04:57:19.282Z,1.90
2018-12-19T04:59:46.907Z,2.27
2018-12-19T05:02:14.498Z,1.30
2018-12-19T05:04:42.263Z,2.53
2018-12-19T05:07:10.034Z,3.73
2018-12-19T05:09:37.804Z,3.00
2018-12-19T05:12:05.549Z,1.10
2018-12-19T05:14:33.427Z,2.67
2018-12-19T05:17:01.096Z,2.07
2018-12-19T05:19:28.761Z,1.70
2018-12-19T05:21:56.321Z,3.57
2018-12-19T05:24:23.956Z,2.27
2018-12-19T05:26:51.693Z,4.83
2018-12-19T05:29:19.197Z,3.77
2018-12-19T05:31:46.920Z,1.60
2018-12-19T05:34:14.366Z,1.70
2018-12-19T05:36:41.981Z,1.27
2018-12-19T05:39:09.736Z,1.17
2018-12-19T05:41:37.513Z,1.53
2018-12-19T05:44:05.274Z,2.17
2018-12-19T05:46:32.733Z,1.97
2018-12-19T05:49:00.496Z,2.13
2018-12-19T05:51:27.956Z,1.53
2018-12-19T05:53:55.406Z,1.77
2018-12-19T05:56:22.896Z,2.13
2018-12-19T05:58:50.550Z,1.07
2018-12-19T06:01:18.102Z,2.83
2018-12-19T06:03:45.872Z,3.80
2018-12-19T06:06:13.645Z,2.13
2018-12-19T06:08:41.092Z,2.00
2018-12-19T06:11:08.865Z,1.90
2018-12-19T06:13:36.422Z,1.73
2018-12-19T06:16:04.088Z,4.10
2018-12-19T06:18:31.536Z,1.70
2018-12-19T06:20:58.986Z,1.67
2018-12-19T06:23:26.470Z,4.47
2018-12-19T06:25:54.013Z,1.57
2018-12-19T06:28:23.129Z,1.27
2018-12-19T06:30:50.992Z,2.30
2018-12-19T06:33:18.444Z,1.67
2018-12-19T06:35:46.061Z,2.33
2018-12-19T06:38:13.670Z,4.30
2018-12-19T06:40:41.273Z,1.97
2018-12-19T06:43:08.776Z,2.03
2018-12-19T06:45:36.248Z,0.93
2018-12-19T06:48:03.700Z,2.93
2018-12-19T06:50:31.140Z,2.40
2018-12-19T06:52:58.709Z,1.33
2018-12-19T06:55:26.474Z,1.87
2018-12-19T06:57:53.961Z,2.13
2018-12-19T07:00:21.425Z,1.17
2018-12-19T07:02:49.060Z,1.47
2018-12-19T07:05:16.804Z,1.17
2018-12-19T07:07:44.281Z,3.60
2018-12-19T07:10:11.845Z,2.90
2018-12-19T07:12:39.289Z,1.60
2018-12-19T07:15:07.087Z,2.10
2018-12-19T07:17:34.521Z,1.80
2018-12-19T07:20:02.235Z,2.13
2018-12-19T07:22:29.744Z,2.23
2018-12-19T07:24:57.425Z,1.10
2018-12-19T07:27:24.956Z,3.33
2018-12-19T07:29:52.440Z,1.97
2018-12-19T07:32:20.065Z,2.47
2018-12-19T07:34:47.557Z,1.60
2018-12-19T07:37:15.105Z,1.40
2018-12-19T07:39:42.768Z,1.63
2018-12-19T07:42:10.346Z,1.50
2018-12-19T07:44:37.972Z,1.40
2018-12-19T07:47:05.453Z,2.13
2018-12-19T07:49:33.001Z,4.30
2018-12-19T07:52:00.448Z,4.07
2018-12-19T07:54:27.903Z,1.27
2018-12-19T07:56:55.385Z,2.27
2018-12-19T07:59:23.141Z,3.23
2018-12-19T08:01:50.770Z,1.17
2018-12-19T08:04:18.517Z,1.30
2018-12-19T08:06:46.036Z,2.97
2018-12-19T08:09:13.593Z,4.87
2018-12-19T08:11:41.077Z,7.27
2018-12-19T08:14:08.821Z,6.00
2018-12-19T08:16:36.357Z,3.40
2018-12-19T08:19:04.051Z,5.03
2018-12-19T08:21:31.820Z,6.30
2018-12-19T08:23:59.443Z,9.67
2018-12-19T08:26:26.956Z,8.03
2018-12-19T08:28:54.417Z,13.37
2018-12-19T08:31:21.870Z,10.03
2018-12-19T08:33:49.317Z,15.40
2018-12-19T08:36:16.800Z,16.77
2018-12-19T08:38:44.330Z,12.77
2018-12-19T08:41:11.886Z,15.93
2018-12-19T08:43:39.548Z,14.57
2018-12-19T08:46:07.301Z,13.87
2018-12-19T08:48:34.765Z,10.40
2018-12-19T08:51:02.241Z,8.23
2018-12-19T08:53:29.885Z,12.83
2018-12-19T08:55:57.354Z,12.13
2018-12-19T08:58:24.947Z,12.60
2018-12-19T09:00:52.461Z,8.30
2018-12-19T09:03:19.992Z,8.13
2018-12-19T09:05:47.489Z,8.03
2018-12-19T09:08:15.049Z,10.27
2018-12-19T09:10:42.829Z,6.63
2018-12-19T09:13:10.574Z,8.00
2018-12-19T09:15:43.569Z,8.57
2018-12-19T09:18:11.337Z,5.97
2018-12-19T09:20:38.969Z,9.40
2018-12-19T09:23:06.482Z,9.00
2018-12-19T09:25:34.016Z,7.30
2018-12-19T09:28:01.782Z,8.23
2018-12-19T09:30:29.396Z,10.67
2018-12-19T09:32:57.007Z,9.17
2018-12-19T09:35:24.656Z,7.90
2018-12-19T09:37:52.231Z,5.13
2018-12-19T09:40:19.674Z,9.37
2018-12-19T09:42:47.129Z,7.33
2018-12-19T09:45:14.776Z,7.80
2018-12-19T09:47:42.369Z,9.73
2018-12-19T09:50:10.006Z,9.07
2018-12-19T09:52:37.450Z,8.00
2018-12-19T09:55:05.669Z,11.33
2018-12-19T09:57:33.357Z,10.20
2018-12-19T10:00:00.878Z,13.97
2018-12-19T10:02:28.653Z,13.90
2018-12-19T10:04:56.426Z,15.20
2018-12-19T10:07:23.920Z,13.90
2018-12-19T10:09:51.650Z,19.27
2018-12-19T10:12:19.116Z,14.40
2018-12-19T10:14:46.864Z,10.20
2018-12-19T10:17:14.497Z,11.60
2018-12-19T10:19:42.137Z,9.73
2018-12-19T10:22:09.850Z,13.50
2018-12-19T10:24:42.985Z,10.10
2018-12-19T10:27:12.421Z,10.77
2018-12-19T10:29:39.913Z,8.03
2018-12-19T10:32:07.689Z,17.07
2018-12-19T10:34:37.079Z,7.80
2018-12-19T10:37:04.845Z,7.97
2018-12-19T10:39:32.513Z,11.00
2018-12-19T10:41:59.969Z,11.50
2018-12-19T10:44:27.733Z,10.37
2018-12-19T10:46:55.184Z,10.27
2018-12-19T10:49:22.636Z,6.87
2018-12-19T10:51:50.131Z,8.93
2018-12-19T10:54:17.864Z,8.73
2018-12-19T10:56:45.341Z,14.67
2018-12-19T10:59:13.117Z,11.33
2018-12-19T11:01:40.561Z,12.60
2018-12-19T11:04:08.131Z,9.57
2018-12-19T11:06:35.781Z,10.93
2018-12-19T11:09:06.318Z,10.93
2018-12-19T11:11:33.777Z,12.07
2018-12-19T11:14:01.274Z,12.47
2018-12-19T11:16:28.701Z,13.67
2018-12-19T11:18:56.174Z,10.50
2018-12-19T11:21:23.900Z,8.97
2018-12-19T11:23:51.522Z,9.57
2018-12-19T11:26:19.069Z,12.77
2018-12-19T11:28:46.539Z,9.73
2018-12-19T11:31:14.014Z,9.63
2018-12-19T11:33:42.333Z,10.20
2018-12-19T11:36:10.207Z,10.30
2018-12-19T11:38:37.945Z,12.27
2018-12-19T11:41:05.417Z,10.97
2018-12-19T11:43:33.027Z,9.07
2018-12-19T11:46:00.545Z,12.27
2018-12-19T11:48:28.032Z,12.60
2018-12-19T11:50:55.549Z,10.33
2018-12-19T11:53:23.200Z,10.77
2018-12-19T11:55:50.732Z,10.30
2018-12-19T11:58:18.189Z,10.97
2018-12-19T12:00:45.645Z,9.57
2018-12-19T12:03:13.102Z,11.57
2018-12-19T12:05:40.558Z,10.60
2018-12-19T12:08:08.061Z,7.37
2018-12-19T12:10:36.905Z,9.63
2018-12-19T12:13:04.731Z,8.27
2018-12-19T12:15:32.203Z,7.13
2018-12-19T12:17:59.642Z,7.83
2018-12-19T12:20:27.126Z,7.67
2018-12-19T12:22:54.665Z,6.97
2018-12-19T12:25:22.118Z,8.77
2018-12-19T12:27:49.868Z,10.23
2018-12-19T12:30:17.353Z,6.47
2018-12-19T12:32:45.106Z,7.80
2018-12-19T12:35:12.792Z,6.00
2018-12-19T12:37:41.502Z,8.00
2018-12-19T12:40:09.335Z,7.07
2018-12-19T12:42:36.964Z,8.40
2018-12-19T12:45:04.993Z,5.67
2018-12-19T12:47:32.592Z,4.10
2018-12-19T12:50:00.045Z,6.73
2018-12-19T12:52:27.533Z,6.47
2018-12-19T12:54:54.990Z,13.67
2018-12-19T12:57:22.768Z,13.53
2018-12-19T12:59:50.231Z,12.70
2018-12-19T13:02:17.997Z,13.43
2018-12-19T13:04:45.762Z,17.90
2018-12-19T13:07:13.225Z,14.63
2018-12-19T13:09:40.969Z,9.20
2018-12-19T13:12:08.741Z,8.97
2018-12-19T13:14:36.364Z,7.97
2018-12-19T13:17:03.987Z,7.80
2018-12-19T13:19:31.734Z,8.50
2018-12-19T13:21:59.421Z,8.03
2018-12-19T13:24:26.980Z,8.37
2018-12-19T13:26:54.953Z,10.47
2018-12-19T13:29:23.122Z,10.53
2018-12-19T13:31:51.263Z,8.67
2018-12-19T13:34:18.856Z,7.23
2018-12-19T13:36:46.297Z,10.40
2018-12-19T13:39:13.765Z,8.13
2018-12-19T13:41:41.236Z,9.77
2018-12-19T13:44:08.676Z,7.83
2018-12-19T13:46:36.136Z,11.17
2018-12-19T13:49:04.069Z,10.13
2018-12-19T13:51:32.115Z,4.90
2018-12-19T13:54:00.293Z,7.50
2018-12-19T13:56:27.808Z,9.73
2018-12-19T13:58:55.309Z,5.30
2018-12-19T14:01:22.818Z,7.27
2018-12-19T14:03:50.449Z,7.20
2018-12-19T14:06:17.961Z,7.70
2018-12-19T14:08:45.413Z,7.73
2018-12-19T14:11:12.957Z,6.67
2018-12-19T14:13:40.718Z,8.23
2018-12-19T14:16:08.247Z,15.77
2018-12-19T14:18:36.069Z,14.10
2018-12-19T14:21:03.748Z,13.20
2018-12-19T14:23:31.202Z,11.97
2018-12-19T14:25:58.704Z,10.60
2018-12-19T14:28:26.549Z,7.17
2018-12-19T14:30:54.154Z,11.50
2018-12-19T14:33:21.944Z,7.30
2018-12-19T14:35:49.597Z,10.20
2018-12-19T14:38:17.118Z,6.53
2018-12-19T14:40:44.615Z,9.33
2018-12-19T14:43:12.361Z,8.80
2018-12-19T14:45:39.816Z,9.17
2018-12-19T14:48:07.259Z,8.47
2018-12-19T14:50:35.576Z,10.17
2018-12-19T14:53:03.035Z,9.07
2018-12-19T14:55:30.587Z,9.33
2018-12-19T14:57:58.051Z,8.80
2018-12-19T15:00:25.525Z,5.40
2018-12-19T15:02:53.265Z,11.03
2018-12-19T15:05:21.037Z,6.80
2018-12-19T15:07:48.644Z,7.77
2018-12-19T15:10:16.189Z,6.93
2018-12-19T15:12:43.633Z,7.57
2018-12-19T15:15:11.092Z,40.63
2018-12-19T15:17:38.537Z,21.77
2018-12-19T15:20:05.977Z,16.30
2018-12-19T15:22:33.561Z,12.73
2018-12-19T15:25:01.265Z,12.63
2018-12-19T15:27:28.761Z,14.23
2018-12-19T15:29:56.533Z,12.20
2018-12-19T15:32:24.286Z,10.37
2018-12-19T15:34:51.772Z,8.53
2018-12-19T15:37:19.528Z,8.13
2018-12-19T15:39:46.985Z,11.47
2018-12-19T15:42:14.737Z,9.70
2018-12-19T15:44:42.206Z,9.87
2018-12-19T15:47:09.970Z,9.00
2018-12-19T15:49:37.725Z,6.73
2018-12-19T15:52:05.374Z,9.17
2018-12-19T15:54:32.926Z,11.30
2018-12-19T15:57:00.408Z,10.33
2018-12-19T15:59:27.874Z,8.23
2018-12-19T16:01:55.647Z,8.37
2018-12-19T16:04:23.098Z,9.97
2018-12-19T16:06:50.555Z,9.73
2018-12-19T16:09:18.340Z,12.67
2018-12-19T16:11:45.970Z,10.80
2018-12-19T16:14:14.320Z,9.40
2018-12-19T16:16:42.640Z,11.63
2018-12-19T16:19:10.333Z,8.87
2018-12-19T16:21:39.557Z,12.77
2018-12-19T16:24:08.382Z,11.90
2018-12-19T16:26:37.064Z,9.17
2018-12-19T16:29:04.734Z,9.37
2018-12-19T16:31:32.502Z,7.53
2018-12-19T16:34:00.284Z,10.93
2018-12-19T16:36:27.729Z,11.27
2018-12-19T16:38:55.363Z,5.80
2018-12-19T16:41:22.952Z,6.07
2018-12-19T16:43:52.790Z,10.53
2018-12-19T16:46:20.340Z,13.00
2018-12-19T16:48:47.977Z,10.17
2018-12-19T16:51:15.460Z,7.60
2018-12-19T16:53:42.921Z,11.47
2018-12-19T16:56:10.377Z,11.23
2018-12-19T16:58:38.104Z,7.23
2018-12-19T17:01:05.690Z,10.43
2018-12-19T17:03:33.134Z,7.70
2018-12-19T17:06:00.628Z,6.90
2018-12-19T17:08:28.373Z,4.00
2018-12-19T17:10:56.776Z,6.17
2018-12-19T17:13:24.521Z,8.50
2018-12-19T17:15:52.147Z,5.47
2018-12-19T17:18:19.761Z,6.37
2018-12-19T17:20:47.210Z,14.47
2018-12-19T17:23:14.961Z,7.73
2018-12-19T17:25:42.720Z,8.47
2018-12-19T17:28:10.243Z,8.90
2018-12-19T17:30:37.944Z,9.23
2018-12-19T17:33:05.429Z,9.27
2018-12-19T17:35:32.876Z,5.17
2018-12-19T17:38:00.312Z,6.20
2018-12-19T17:40:27.778Z,6.13
2018-12-19T17:42:59.346Z,9.83
2018-12-19T17:45:24.855Z,5.27
2018-12-19T17:47:52.312Z,8.30
2018-12-19T17:50:19.807Z,6.70
2018-12-19T17:52:47.522Z,6.43
2018-12-19T17:55:15.168Z,6.60
2018-12-19T17:57:42.750Z,5.70
2018-12-19T18:00:11.513Z,5.97
2018-12-19T18:02:39.099Z,8.00
2018-12-19T18:05:06.629Z,5.73
2018-12-19T18:07:34.140Z,5.30
2018-12-19T18:10:01.778Z,9.53
2018-12-19T18:12:29.357Z,6.03
2018-12-19T18:14:56.812Z,4.90
2018-12-19T18:17:24.322Z,5.50
2018-12-19T18:19:51.930Z,9.20
2018-12-19T18:22:19.397Z,5.07
2018-12-19T18:24:46.937Z,6.47
2018-12-19T18:27:14.393Z,5.13
2018-12-19T18:29:42.041Z,7.90
2018-12-19T18:32:09.640Z,6.30
2018-12-19T18:34:37.099Z,7.27
2018-12-19T18:37:04.677Z,4.23
2018-12-19T18:39:32.317Z,4.43
2018-12-19T18:42:00.102Z,4.73
2018-12-19T18:44:27.869Z,4.93
2018-12-19T18:46:55.329Z,4.63
2018-12-19T18:49:23.070Z,3.93
2018-12-19T18:51:50.531Z,9.57
2018-12-19T18:54:17.997Z,3.63
2018-12-19T18:56:45.625Z,5.73
2018-12-19T18:59:13.322Z,6.47
2018-12-19T19:01:43.554Z,5.07
2018-12-19T19:04:11.197Z,6.33
2018-12-19T19:06:38.632Z,6.27
2018-12-19T19:09:10.271Z,6.47
2018-12-19T19:11:37.873Z,4.07
2018-12-19T19:14:05.505Z,4.57
2018-12-19T19:16:32.951Z,4.63
2018-12-19T19:19:00.518Z,6.03
2018-12-19T19:21:28.300Z,3.80
2018-12-19T19:23:59.079Z,4.80
2018-12-19T19:26:26.525Z,4.53
2018-12-19T19:28:53.984Z,4.53
2018-12-19T19:31:21.522Z,3.83
2018-12-19T19:33:49.177Z,3.03
2018-12-19T19:36:16.652Z,4.90
2018-12-19T19:38:44.113Z,4.17
2018-12-19T19:41:11.676Z,3.23
2018-12-19T19:43:39.442Z,2.43
2018-12-19T19:46:07.197Z,7.23
2018-12-19T19:48:34.956Z,3.30
2018-12-19T19:51:02.730Z,5.37
2018-12-19T19:53:30.189Z,5.13
2018-12-19T19:55:57.633Z,6.03
2018-12-19T19:58:25.080Z,7.73
2018-12-19T20:00:52.594Z,3.53
2018-12-19T20:03:20.341Z,3.90
2018-12-19T20:05:48.111Z,4.80
2018-12-19T20:08:15.873Z,4.17
2018-12-19T20:10:43.411Z,4.43
2018-12-19T20:13:11.001Z,5.63
2018-12-19T20:15:38.539Z,4.73
2018-12-19T20:18:06.313Z,4.07
2018-12-19T20:20:33.769Z,5.30
2018-12-19T20:23:01.228Z,3.87
2018-12-19T20:25:28.997Z,2.53
2018-12-19T20:27:56.617Z,4.27
2018-12-19T20:30:25.087Z,2.53
2018-12-19T20:32:52.601Z,4.07
2018-12-19T20:35:20.401Z,5.10
2018-12-19T20:37:47.817Z,4.30
2018-12-19T20:40:15.580Z,4.83
2018-12-19T20:42:43.045Z,4.77
2018-12-19T20:45:10.801Z,5.77
2018-12-19T20:47:38.257Z,4.30
2018-12-19T20:50:08.241Z,3.53
2018-12-19T20:52:35.828Z,2.67
2018-12-19T20:55:03.458Z,4.13
2018-12-19T20:57:31.065Z,3.13
2018-12-19T20:59:58.614Z,2.97
2018-12-19T21:02:26.048Z,3.17
2018-12-19T21:04:53.484Z,2.37
2018-12-19T21:07:22.450Z,2.43
2018-12-19T21:09:49.993Z,2.93
2018-12-19T21:12:17.480Z,7.67
2018-12-19T21:14:45.223Z,2.93
2018-12-19T21:17:18.372Z,4.37
2018-12-19T21:19:45.977Z,3.23
2018-12-19T21:22:13.619Z,4.03
2018-12-19T21:24:41.205Z,8.53
2018-12-19T21:27:08.657Z,6.83
2018-12-19T21:29:36.442Z,10.43
2018-12-19T21:32:04.053Z,8.60
2018-12-19T21:34:31.645Z,8.67
2018-12-19T21:36:59.316Z,10.60
2018-12-19T21:39:26.865Z,9.03
2018-12-19T21:41:54.593Z,6.40
2018-12-19T21:44:22.085Z,6.23
2018-12-19T21:46:49.541Z,8.87
2018-12-19T21:49:16.989Z,5.70
2018-12-19T21:51:44.488Z,6.40
2018-12-19T21:54:12.222Z,5.93
2018-12-19T21:56:39.924Z,5.10
2018-12-19T21:59:07.374Z,6.10
2018-12-19T22:01:34.926Z,6.50
2018-12-19T22:04:02.365Z,6.63
2018-12-19T22:06:29.834Z,9.70
2018-12-19T22:08:57.651Z,4.10
2018-12-19T22:11:25.341Z,3.20
2018-12-19T22:13:53.044Z,5.30
2018-12-19T22:19:24.245Z,4.23
2018-12-19T22:21:51.966Z,5.13
2018-12-19T22:24:19.594Z,3.23
2018-12-19T22:26:47.295Z,4.13
2018-12-19T22:29:15.055Z,2.80
2018-12-19T22:31:42.685Z,3.97
2018-12-19T22:34:10.605Z,3.90
2018-12-19T22:36:38.346Z,4.67
2018-12-19T22:39:10.299Z,2.63
2018-12-19T22:41:38.086Z,2.53
2018-12-19T22:44:08.093Z,3.77
2018-12-19T22:46:35.314Z,2.30
2018-12-19T22:49:03.007Z,3.13
2018-12-19T22:51:30.645Z,2.47
2018-12-19T22:53:58.231Z,4.43
2018-12-19T22:56:26.047Z,4.23
2018-12-19T22:58:53.941Z,3.70
2018-12-19T23:01:27.134Z,2.97
2018-12-19T23:04:00.225Z,2.37
2018-12-19T23:06:27.691Z,4.10
2018-12-19T23:08:55.418Z,4.60
2018-12-19T23:11:23.733Z,5.50
2018-12-19T23:13:51.415Z,3.13
2018-12-19T23:16:19.135Z,2.33
2018-12-19T23:18:46.991Z,2.87
2018-12-19T23:21:14.632Z,2.63
2018-12-19T23:23:42.512Z,3.73
2018-12-19T23:26:09.968Z,2.83
2018-12-19T23:28:37.556Z,2.40
2018-12-19T23:31:05.157Z,4.33
2018-12-19T23:33:32.638Z,3.33
2018-12-19T23:36:00.240Z,2.80
2018-12-19T23:38:28.105Z,3.10
2018-12-19T23:40:55.677Z,2.20
2018-12-19T23:43:23.357Z,2.13
2018-12-19T23:45:50.991Z,2.63
2018-12-19T23:48:19.072Z,2.80
2018-12-19T23:50:47.019Z,3.60
2018-12-19T23:53:14.721Z,3.73
2018-12-19T23:55:42.320Z,2.83
2018-12-19T23:58:09.909Z,1.83
